桶川 → RJNT 1010-1130 (1+20) BE-A36
RJNT → 桶川  1340-1450 (1+10) BE-A36
桶川 LCL     1625-1711 (0+46)  BE33


Kさんにお誘いいただいて飛んできました。
大島-新島-神津島めぐりも候補になっていましたが、天気
が良いので富山へ行って来ました。

糸魚川経由で天候に応じてショートカットしました。
復路はKさんが苗場の方を空から見てみたいということで
寄り道、西風25ノットに助けられ対地速度は170KTは出て
いてだいぶ得しました。

自衛隊の試験空域AreaHもAreaJもコールド状態で
無線で呼びかけたら往路のみ応答がありました。
(どちらも離陸前に自衛隊には電話済です)

昼食はいつものきときと寿司へタクシーへ行ったら、
臨時休業。タクシーの車内で運転手さんと話題になってい
た富山ブラックラーメンのお店へ連れて行ってもらいました。
かなり塩味の効いたスープでした。

戻ってからはいつものボナンザに乗り換て遊びました。
続けて乗るとA36とE33の違いが良く分かります。

Kさんお誘い頂きありがとうございました。

20180317DSCN8602JA3576富山SM
晴れの富山へ到着

20180317P1015657JA3576SM
日本アルプス越えです

20180317DSCN8606ラーメン大喜SM
大喜根塚店。チャーシューメンのみです

20180317DSCN8603ラーメン大喜SM
チャーシューメン(大)を頼みました

20180317DSCN8608つくしSM
店の前にはつくしが生えていました。春です

20180317P1015659JA3446SM
桶川ではE33でローカルフライトを1回

RJNT 170500Z 35008KT 9999 FEW035 07/M02 Q1028
RJNT 170400Z 36008KT 290V050 9999 FEW030 SCT035
07/M03 Q1028
RJNT 170300Z 32007KT 9999 FEW030 SCT035 07/M02
Q1029
RJNT 170200Z 35005KT 310V030 9999 FEW030 BKN035
06/M04 Q1029